Time;durP1;ratioP1;P1;durP2;ratioP2;P2;SDS_P1;SDS_P2;PMS_P1;PMS_P2;Temp;Humidity;BMP_temperature;BMP_pressure;BME280_temperature;BME280_humidity;BME280_pressure;Samples;Min_cycle;Max_cycle;Signal;HPM_P1;HPM_P2
2022/09/29 00:00:21;;;;;;;17.00;12.58;;;;;;;10.43;86.43;99050.98;1694587;83;26437;-79
2022/09/29 00:02:50;;;;;;;14.28;10.82;;;;;;;10.43;86.45;99056.85;1721833;81;26131;-80
2022/09/29 00:05:16;;;;;;;16.32;13.32;;;;;;;10.43;86.61;99059.02;1721167;81;25890;-80
2022/09/29 00:07:42;;;;;;;13.78;11.38;;;;;;;10.41;86.61;99057.59;1720764;81;25530;-79
2022/09/29 00:10:09;;;;;;;17.50;12.70;;;;;;;10.44;86.63;99055.80;1757782;80;26445;-78
2022/09/29 00:12:35;;;;;;;16.45;12.98;;;;;;;10.48;86.58;99059.66;1756013;80;26193;-79
2022/09/29 00:15:02;;;;;;;15.30;11.95;;;;;;;10.47;86.61;99066.06;1704337;82;27998;-80
2022/09/29 00:17:29;;;;;;;17.92;11.80;;;;;;;10.46;86.63;99065.24;1705860;83;26392;-79
2022/09/29 00:19:55;;;;;;;16.95;12.15;;;;;;;10.45;86.74;99066.81;1709250;83;25978;-78
2022/09/29 00:22:21;;;;;;;18.67;12.43;;;;;;;10.44;86.78;99074.53;1706260;83;26008;-78
2022/09/29 00:24:48;;;;;;;19.00;12.68;;;;;;;10.40;86.83;99068.81;1722388;82;25772;-79
2022/09/29 00:27:16;;;;;;;16.10;11.70;;;;;;;10.41;86.87;99070.47;1729150;81;27479;-78
2022/09/29 00:29:43;;;;;;;15.45;11.75;;;;;;;10.41;86.94;99066.45;1728333;81;26505;-79
2022/09/29 00:32:10;;;;;;;14.53;11.60;;;;;;;10.41;86.94;99071.80;1701325;83;25837;-80
2022/09/29 00:34:36;;;;;;;17.50;12.75;;;;;;;10.39;86.89;99069.05;1702696;82;26544;-79
2022/09/29 00:37:03;;;;;;;18.87;13.22;;;;;;;10.39;86.89;99074.40;1712726;81;25524;-80
2022/09/29 00:39:30;;;;;;;16.95;12.68;;;;;;;10.41;86.82;99063.77;1720009;81;27460;-79
2022/09/29 00:41:59;;;;;;;16.85;12.33;;;;;;;10.38;86.73;99067.40;1716051;82;25749;-79
2022/09/29 00:45:20;;;;;;;16.45;12.20;;;;;;;10.35;86.82;99068.66;1720296;81;25292;-79
2022/09/29 00:47:58;;;;;;;17.12;12.23;;;;;;;10.32;86.72;99064.28;1715993;83;26465;-80
2022/09/29 00:50:39;;;;;;;14.87;11.55;;;;;;;10.30;86.84;99069.86;1712350;83;25823;-80
2022/09/29 00:53:10;;;;;;;19.02;12.63;;;;;;;10.29;86.80;99077.58;1722220;81;27470;-80
2022/09/29 00:55:42;;;;;;;18.35;11.95;;;;;;;10.25;86.89;99079.06;1714602;81;25972;-79
2022/09/29 00:58:32;;;;;;;18.15;12.53;;;;;;;10.24;86.90;99076.11;1718503;81;25824;-81
2022/09/29 01:00:59;;;;;;;19.90;11.70;;;;;;;10.23;86.96;99078.47;1717326;81;25765;-81
2022/09/29 01:03:37;;;;;;;15.43;11.30;;;;;;;10.22;87.03;99084.88;1714679;81;25270;-81
2022/09/29 01:06:11;;;;;;;19.02;12.20;;;;;;;10.18;86.98;99084.98;1719969;81;27476;-80
2022/09/29 01:08:56;;;;;;;13.62;11.20;;;;;;;10.16;86.93;99089.74;1724043;81;25805;-79
2022/09/29 01:11:24;;;;;;;14.43;11.05;;;;;;;10.11;86.83;99089.61;1706836;82;26038;-80
2022/09/29 01:13:53;;;;;;;16.32;11.70;;;;;;;10.08;86.89;99085.98;1728165;81;26555;-79
2022/09/29 01:16:20;;;;;;;17.12;11.70;;;;;;;10.11;86.91;99088.78;1721740;81;25321;-80
2022/09/29 01:18:46;;;;;;;15.78;10.70;;;;;;;10.09;86.71;99099.14;1707062;82;27487;-79
2022/09/29 01:21:18;;;;;;;15.13;11.60;;;;;;;10.07;86.52;99097.20;1706063;83;25820;-81
2022/09/29 01:24:22;;;;;;;18.05;12.47;;;;;;;10.04;86.52;99103.02;1705687;83;25784;-81
2022/09/29 01:27:12;;;;;;;14.58;11.15;;;;;;;10.03;86.42;99107.22;1706773;83;25762;-79
2022/09/29 01:30:19;;;;;;;16.70;10.95;;;;;;;10.02;86.32;99105.09;1710040;82;25851;-80
2022/09/29 01:33:20;;;;;;;13.08;10.53;;;;;;;10.00;86.32;99107.67;1675032;83;27468;-80
2022/09/29 01:36:12;;;;;;;14.70;10.90;;;;;;;9.97;86.16;99108.92;1707208;83;26437;-79
2022/09/29 01:39:01;;;;;;;15.35;10.50;;;;;;;9.93;86.16;99114.93;1712441;81;25776;-79
2022/09/29 01:41:45;;;;;;;13.62;10.20;;;;;;;9.89;86.16;99117.23;1705379;82;26389;-81
2022/09/29 01:44:28;;;;;;;16.30;9.75;;;;;;;9.89;86.14;99121.24;1663262;83;26464;-80
2022/09/29 01:47:09;;;;;;;13.45;9.13;;;;;;;9.85;86.04;99117.37;1698896;84;27479;-80
2022/09/29 01:49:40;;;;;;;15.83;9.68;;;;;;;9.75;85.96;99120.23;1702005;82;25943;-81
2022/09/29 01:52:17;;;;;;;16.07;10.75;;;;;;;9.66;86.11;99126.88;1757695;80;25748;-81
2022/09/29 01:55:00;;;;;;;13.08;9.48;;;;;;;9.58;86.32;99131.15;1758683;80;26588;-82
2022/09/29 01:57:44;;;;;;;15.40;8.90;;;;;;;9.48;86.60;99130.78;1718186;81;25919;-81
2022/09/29 02:00:15;;;;;;;12.63;9.30;;;;;;;9.45;87.06;99133.91;1714711;81;27519;-83
2022/09/29 02:02:54;;;;;;;11.75;8.65;;;;;;;9.40;87.27;99127.03;1708247;82;25840;-81
2022/09/29 02:05:47;;;;;;;13.53;8.95;;;;;;;9.38;87.53;99131.27;1702593;82;25940;-81
2022/09/29 02:08:24;;;;;;;12.47;9.38;;;;;;;9.36;87.49;99132.00;1708183;82;25978;-80
2022/09/29 02:11:04;;;;;;;11.80;8.95;;;;;;;9.30;87.46;99122.97;1731490;81;25918;-80
2022/09/29 02:13:36;;;;;;;12.33;9.38;;;;;;;9.31;87.47;99133.97;1706751;83;27491;-81
2022/09/29 02:16:05;;;;;;;11.48;9.43;;;;;;;9.26;87.53;99144.47;1706081;82;25911;-80
2022/09/29 02:18:37;;;;;;;12.82;9.40;;;;;;;9.30;87.69;99138.20;1706643;82;26437;-80
2022/09/29 02:21:03;;;;;;;12.23;9.03;;;;;;;9.31;87.69;99146.00;1708168;83;26709;-80
2022/09/29 02:23:30;;;;;;;11.40;9.60;;;;;;;9.33;87.69;99149.78;1705978;82;25812;-81
2022/09/29 02:25:59;;;;;;;11.65;9.18;;;;;;;9.33;87.78;99141.77;1721762;81;27445;-80
2022/09/29 02:28:25;;;;;;;10.55;9.43;;;;;;;9.32;87.79;99146.83;1722242;81;25941;-80
2022/09/29 02:30:52;;;;;;;15.50;8.98;;;;;;;9.33;88.01;99141.26;1709603;82;25859;-80
2022/09/29 02:33:22;;;;;;;10.28;9.15;;;;;;;9.36;88.18;99146.70;1708509;82;25917;-80
2022/09/29 02:36:02;;;;;;;11.95;9.08;;;;;;;9.38;88.20;99149.14;1710693;82;25777;-79
2022/09/29 02:38:50;;;;;;;13.32;9.38;;;;;;;9.40;88.29;99148.41;1717336;81;27023;-80
2022/09/29 02:41:39;;;;;;;10.90;9.13;;;;;;;9.42;88.46;99160.53;1706013;82;25735;-81
2022/09/29 02:44:27;;;;;;;12.10;8.53;;;;;;;9.42;88.43;99158.38;1720137;83;25859;-81
2022/09/29 02:47:10;;;;;;;10.90;8.85;;;;;;;9.36;88.52;99169.41;1719196;83;25772;-80
2022/09/29 02:50:16;;;;;;;11.70;9.15;;;;;;;9.38;88.78;99166.01;1725800;81;25860;-82
2022/09/29 02:53:12;;;;;;;10.65;8.78;;;;;;;9.39;88.90;99170.30;1717549;83;28297;-80
2022/09/29 02:55:59;;;;;;;13.15;9.40;;;;;;;9.40;88.99;99172.47;1717568;81;25797;-80
2022/09/29 02:58:43;;;;;;;12.88;9.45;;;;;;;9.40;89.10;99174.62;1720585;81;26631;-79
2022/09/29 03:01:10;;;;;;;11.38;9.53;;;;;;;9.39;89.13;99178.32;1726126;81;25963;-80
2022/09/29 03:03:36;;;;;;;12.00;9.65;;;;;;;9.36;89.13;99177.94;1722564;83;25853;-80
2022/09/29 03:06:02;;;;;;;12.05;9.53;;;;;;;9.37;89.27;99171.03;1723047;81;28374;-80
2022/09/29 03:08:29;;;;;;;12.63;10.15;;;;;;;9.40;89.36;99171.13;1731710;81;26181;-81
2022/09/29 03:10:55;;;;;;;11.48;9.28;;;;;;;9.44;89.41;99175.02;1708252;82;26397;-80
2022/09/29 03:13:21;;;;;;;11.80;10.23;;;;;;;9.44;89.32;99177.17;1706328;83;25818;-80
2022/09/29 03:15:48;;;;;;;10.78;9.35;;;;;;;9.46;89.41;99172.94;1706530;82;25843;-79
2022/09/29 03:18:14;;;;;;;13.20;10.32;;;;;;;9.47;89.38;99179.43;1727985;81;28251;-80
2022/09/29 03:20:41;;;;;;;11.08;9.80;;;;;;;9.49;89.48;99189.39;1722379;82;26501;-81
2022/09/29 03:23:07;;;;;;;12.82;10.10;;;;;;;9.47;89.39;99202.16;1721265;82;26039;-79
2022/09/29 03:25:33;;;;;;;13.85;9.88;;;;;;;9.48;89.43;99191.75;1721582;83;25903;-80
2022/09/29 03:28:00;;;;;;;12.10;10.03;;;;;;;9.48;89.46;99193.59;1725037;81;25300;-79
2022/09/29 03:30:26;;;;;;;12.43;9.73;;;;;;;9.47;89.44;99196.80;1722649;82;27452;-80
2022/09/29 03:32:53;;;;;;;11.12;8.88;;;;;;;9.48;89.56;99199.77;1722000;83;25773;-79
2022/09/29 03:35:19;;;;;;;13.95;10.00;;;;;;;9.48;89.57;99199.77;1724035;81;25885;-79
2022/09/29 03:37:45;;;;;;;13.83;10.78;;;;;;;9.46;89.60;99204.50;1722092;83;25835;-80
2022/09/29 03:40:12;;;;;;;12.60;10.90;;;;;;;9.46;89.73;99205.02;1722730;83;25818;-79
2022/09/29 03:42:38;;;;;;;11.35;9.88;;;;;;;9.46;89.81;99204.50;1722331;82;27474;-80
2022/09/29 03:45:08;;;;;;;12.43;9.75;;;;;;;9.48;89.87;99205.11;1726595;81;25919;-79
2022/09/29 03:47:34;;;;;;;11.95;9.50;;;;;;;9.50;89.96;99209.72;1722769;81;25779;-80
2022/09/29 03:50:00;;;;;;;12.40;9.18;;;;;;;9.50;89.97;99206.22;1720465;81;25913;-79
2022/09/29 03:52:27;;;;;;;13.60;10.60;;;;;;;9.50;90.05;99212.91;1730645;81;26444;-79
2022/09/29 03:54:53;;;;;;;16.15;10.60;;;;;;;9.52;90.12;99213.00;1706483;83;27468;-80
2022/09/29 03:57:19;;;;;;;14.95;10.32;;;;;;;9.53;90.12;99210.65;1721349;82;25827;-80
2022/09/29 03:59:46;;;;;;;13.13;10.15;;;;;;;9.55;90.13;99206.41;1723610;81;25857;-80
2022/09/29 04:02:13;;;;;;;13.95;10.70;;;;;;;9.54;90.17;99209.59;1707000;82;25838;-80
2022/09/29 04:04:40;;;;;;;13.68;10.68;;;;;;;9.51;90.09;99210.55;1733007;81;25749;-81
2022/09/29 04:07:06;;;;;;;14.05;10.23;;;;;;;9.51;90.23;99211.38;1712681;82;28273;-79
2022/09/29 04:09:32;;;;;;;15.18;10.72;;;;;;;9.51;90.37;99210.05;1723665;82;25843;-79
2022/09/29 04:11:59;;;;;;;18.40;11.40;;;;;;;9.52;90.40;99207.66;1761491;80;25969;-79
2022/09/29 04:14:25;;;;;;;15.43;11.43;;;;;;;9.53;90.43;99214.66;1759138;81;26520;-78
2022/09/29 04:16:51;;;;;;;13.58;11.28;;;;;;;9.54;90.43;99211.47;1762539;80;25759;-80
2022/09/29 04:19:18;;;;;;;14.20;10.43;;;;;;;9.55;90.56;99205.91;1764222;80;27958;-80
2022/09/29 04:21:44;;;;;;;13.65;10.13;;;;;;;9.58;90.47;99203.33;1767616;80;25469;-79
2022/09/29 04:24:11;;;;;;;14.05;10.63;;;;;;;9.59;90.53;99207.11;1765483;80;26420;-81
2022/09/29 04:26:38;;;;;;;13.28;11.00;;;;;;;9.60;90.54;99207.40;1709364;82;27034;-79
2022/09/29 04:29:05;;;;;;;20.37;11.73;;;;;;;9.61;90.37;99219.75;1766493;80;25904;-79
2022/09/29 04:31:32;;;;;;;14.00;10.53;;;;;;;9.61;90.35;99219.75;1762793;80;28285;-80
2022/09/29 04:33:58;;;;;;;13.10;10.50;;;;;;;9.62;90.34;99224.08;1757907;80;25766;-79
2022/09/29 04:36:25;;;;;;;12.43;9.93;;;;;;;9.63;90.27;99231.55;1765394;80;25712;-80
2022/09/29 04:38:52;;;;;;;14.83;11.30;;;;;;;9.63;90.23;99232.38;1765669;80;26179;-81
2022/09/29 04:41:18;;;;;;;14.70;12.18;;;;;;;9.59;90.09;99227.67;1722280;81;25503;-80
2022/09/29 04:43:44;;;;;;;12.43;10.70;;;;;;;9.62;90.22;99232.61;1720753;81;28416;-80
2022/09/29 04:46:12;;;;;;;15.00;11.97;;;;;;;9.65;90.09;99234.33;1718324;81;25818;-79
2022/09/29 04:48:38;;;;;;;16.48;11.20;;;;;;;9.65;90.12;99235.66;1727753;81;25791;-79
2022/09/29 04:51:06;;;;;;;13.25;10.78;;;;;;;9.66;90.10;99238.65;1761394;80;25764;-79
2022/09/29 04:53:33;;;;;;;13.83;10.90;;;;;;;9.67;90.16;99241.61;1763436;80;25928;-79
2022/09/29 04:56:06;;;;;;;14.50;11.05;;;;;;;9.69;90.24;99238.72;1761368;80;27455;-78
2022/09/29 04:58:34;;;;;;;15.30;11.83;;;;;;;9.69;90.24;99236.05;1722009;81;25807;-80
2022/09/29 05:01:08;;;;;;;13.93;10.93;;;;;;;9.68;90.19;99241.93;1727877;81;25995;-78
2022/09/29 05:03:34;;;;;;;12.53;10.75;;;;;;;9.70;90.19;99243.05;1707023;82;26486;-81
2022/09/29 05:06:01;;;;;;;15.80;11.68;;;;;;;9.67;90.07;99237.60;1705584;82;25749;-79
2022/09/29 05:08:27;;;;;;;15.72;12.73;;;;;;;9.65;90.04;99241.01;1722881;82;27605;-80
2022/09/29 05:10:53;;;;;;;15.05;12.20;;;;;;;9.61;89.95;99242.98;1705419;82;25901;-80
2022/09/29 05:13:19;;;;;;;17.05;12.53;;;;;;;9.58;90.18;99252.24;1720372;82;25835;-80
2022/09/29 05:15:46;;;;;;;13.62;11.48;;;;;;;9.61;90.25;99254.50;1756697;81;25905;-80
2022/09/29 05:18:12;;;;;;;15.53;11.45;;;;;;;9.62;90.22;99256.67;1756286;81;25806;-78
2022/09/29 05:20:38;;;;;;;16.02;11.83;;;;;;;9.62;90.19;99264.69;1721117;82;28295;-79
2022/09/29 05:23:08;;;;;;;14.80;11.28;;;;;;;9.61;90.29;99264.37;1719283;83;25732;-79
2022/09/29 05:25:34;;;;;;;16.32;11.63;;;;;;;9.60;90.23;99268.89;1721952;82;25825;-79
2022/09/29 05:28:00;;;;;;;15.28;12.18;;;;;;;9.58;90.31;99274.17;1721588;81;26548;-82
2022/09/29 05:30:27;;;;;;;16.62;11.68;;;;;;;9.61;90.51;99278.56;1723129;81;25855;-80
2022/09/29 05:32:53;;;;;;;13.90;11.40;;;;;;;9.61;90.46;99284.42;1722098;81;28263;-80
2022/09/29 05:35:19;;;;;;;15.70;12.58;;;;;;;9.63;90.53;99282.34;1721983;81;25735;-79
2022/09/29 05:37:46;;;;;;;14.25;11.85;;;;;;;9.62;90.56;99286.90;1719594;81;26123;-79
2022/09/29 05:40:12;;;;;;;13.85;11.70;;;;;;;9.61;90.36;99290.59;1713960;81;26649;-81
2022/09/29 05:42:39;;;;;;;14.80;12.23;;;;;;;9.56;90.49;99295.74;1715705;81;25836;-80
2022/09/29 05:45:09;;;;;;;14.23;12.13;;;;;;;9.56;90.82;99298.41;1693586;83;27897;-80
2022/09/29 05:47:35;;;;;;;16.05;12.45;;;;;;;9.57;90.82;99296.57;1704331;83;25765;-80
2022/09/29 05:50:02;;;;;;;14.58;11.95;;;;;;;9.58;90.81;99300.36;1707937;83;25801;-79
2022/09/29 05:52:29;;;;;;;13.93;11.90;;;;;;;9.59;90.90;99297.17;1704664;83;26588;-79
2022/09/29 05:54:55;;;;;;;18.27;14.23;;;;;;;9.56;90.73;99294.95;1705248;82;25853;-79
2022/09/29 05:57:21;;;;;;;17.00;13.08;;;;;;;9.58;90.83;99301.70;1711550;82;27440;-80
2022/09/29 05:59:48;;;;;;;16.12;13.50;;;;;;;9.59;90.76;99294.50;1699480;83;25734;-78
2022/09/29 06:02:15;;;;;;;16.95;13.28;;;;;;;9.61;91.21;99300.45;1757448;80;25873;-79
2022/09/29 06:04:42;;;;;;;15.43;11.73;;;;;;;9.65;90.87;99297.16;1753333;80;25752;-79
2022/09/29 06:07:08;;;;;;;13.98;11.83;;;;;;;9.66;90.68;99296.64;1718206;82;26312;-79
2022/09/29 06:09:35;;;;;;;16.57;12.65;;;;;;;9.65;90.59;99302.50;1721759;81;28240;-79
2022/09/29 06:12:02;;;;;;;14.90;11.20;;;;;;;9.64;90.50;99310.23;1718264;81;25909;-80
2022/09/29 06:14:28;;;;;;;16.35;12.75;;;;;;;9.61;90.34;99320.00;1721465;81;25764;-80
2022/09/29 06:16:54;;;;;;;13.28;11.40;;;;;;;9.61;90.34;99324.02;1710862;81;26488;-79
2022/09/29 06:19:21;;;;;;;16.65;12.20;;;;;;;9.60;90.11;99316.21;1710624;81;25847;-80
2022/09/29 06:21:47;;;;;;;14.65;12.13;;;;;;;9.56;90.06;99326.48;1747484;80;27469;-80
2022/09/29 06:24:13;;;;;;;17.67;12.58;;;;;;;9.58;90.33;99332.98;1757119;81;25860;-79
2022/09/29 06:26:40;;;;;;;16.57;13.03;;;;;;;9.61;90.35;99335.21;1759299;80;25732;-80
2022/09/29 06:29:06;;;;;;;15.90;12.37;;;;;;;9.63;90.57;99336.65;1758900;80;26406;-80
2022/09/29 06:31:33;;;;;;;14.73;11.83;;;;;;;9.70;90.89;99344.65;1758346;81;25778;-80
2022/09/29 06:34:02;;;;;;;14.53;12.68;;;;;;;9.76;91.09;99343.29;1720467;81;28286;-79
2022/09/29 06:39:20;;;;;;;13.80;11.83;;;;;;;9.83;90.62;99341.92;1759329;80;25759;-81
2022/09/29 06:41:55;;;;;;;15.08;11.75;;;;;;;9.82;90.24;99343.77;1757097;80;26717;-82
2022/09/29 06:44:27;;;;;;;15.03;12.33;;;;;;;9.85;90.33;99345.20;1727024;81;26036;-80
2022/09/29 06:46:54;;;;;;;16.30;12.23;;;;;;;9.86;90.35;99348.17;1763643;80;27449;-81
2022/09/29 06:49:21;;;;;;;13.60;12.07;;;;;;;9.90;90.36;99350.20;1762244;80;25764;-81
2022/09/29 06:51:48;;;;;;;16.10;12.13;;;;;;;9.93;90.19;99355.15;1721781;81;25691;-80
2022/09/29 06:54:19;;;;;;;16.50;11.83;;;;;;;9.96;90.15;99359.26;1721914;81;26579;-82
2022/09/29 06:56:48;;;;;;;13.83;12.00;;;;;;;9.97;89.96;99358.20;1694362;83;25847;-79
2022/09/29 06:59:14;;;;;;;15.08;12.30;;;;;;;9.97;89.83;99354.20;1720777;81;28427;-81
2022/09/29 07:01:41;;;;;;;14.45;11.63;;;;;;;10.01;90.03;99348.20;1722222;81;25792;-81
2022/09/29 07:04:07;;;;;;;13.50;12.10;;;;;;;10.04;89.48;99355.82;1722034;81;25776;-80
2022/09/29 07:06:34;;;;;;;13.20;11.48;;;;;;;10.08;89.75;99355.70;1722500;81;25819;-81
2022/09/29 07:09:00;;;;;;;13.50;9.98;;;;;;;10.13;89.37;99367.13;1722059;82;26093;-81
2022/09/29 07:11:27;;;;;;;12.43;10.98;;;;;;;10.17;88.99;99371.53;1722103;81;27537;-80
2022/09/29 07:13:54;;;;;;;13.80;10.58;;;;;;;10.22;89.00;99371.20;1722185;81;25773;-81
2022/09/29 07:16:22;;;;;;;14.75;11.00;;;;;;;10.26;88.69;99376.94;1733969;81;25891;-81
2022/09/29 07:18:49;;;;;;;12.55;9.95;;;;;;;10.22;87.98;99375.73;1762854;80;26360;-80
2022/09/29 07:21:17;;;;;;;17.40;11.48;;;;;;;10.25;88.29;99380.64;1757576;80;25758;-81
2022/09/29 07:23:46;;;;;;;12.85;11.18;;;;;;;10.25;88.11;99384.14;1755503;80;27454;-80
2022/09/29 07:26:15;;;;;;;13.90;11.08;;;;;;;10.24;88.02;99382.52;1721080;81;25788;-80
2022/09/29 07:28:42;;;;;;;12.58;11.28;;;;;;;10.24;87.56;99393.73;1721263;81;25725;-81
2022/09/29 07:31:12;;;;;;;14.23;11.33;;;;;;;10.22;88.01;99387.77;1737172;81;26571;-80
2022/09/29 07:33:39;;;;;;;13.20;11.63;;;;;;;10.28;88.14;99390.92;1766453;80;28516;-81
2022/09/29 07:36:06;;;;;;;13.88;11.65;;;;;;;10.27;87.71;99395.45;1758557;80;27593;-81
2022/09/29 07:38:32;;;;;;;12.80;11.30;;;;;;;10.31;87.96;99399.34;1761380;80;25878;-79
2022/09/29 07:41:01;;;;;;;13.55;10.95;;;;;;;10.34;87.53;99394.91;1763942;80;25756;-79
2022/09/29 07:43:27;;;;;;;13.03;11.63;;;;;;;10.35;87.35;99403.22;1755852;80;25932;-82
2022/09/29 07:45:54;;;;;;;15.00;12.55;;;;;;;10.36;87.34;99405.39;1727878;80;25945;-81
2022/09/29 07:48:20;;;;;;;13.68;11.85;;;;;;;10.40;87.58;99411.45;1759380;80;28304;-81
2022/09/29 07:50:46;;;;;;;12.43;10.82;;;;;;;10.42;86.64;99409.88;1765242;80;25772;-79
2022/09/29 07:53:13;;;;;;;14.18;11.83;;;;;;;10.40;86.42;99414.63;1765547;80;25749;-80
2022/09/29 07:55:39;;;;;;;14.13;12.20;;;;;;;10.38;86.51;99409.50;1760056;80;25747;-81
2022/09/29 07:58:06;;;;;;;18.17;13.65;;;;;;;10.39;86.42;99417.81;1763739;80;26131;-81
2022/09/29 08:00:32;;;;;;;15.63;13.48;;;;;;;10.37;86.21;99419.09;1762310;80;27539;-79
2022/09/29 08:03:09;;;;;;;15.78;14.07;;;;;;;10.36;86.44;99430.31;1753831;80;25833;-80
2022/09/29 08:05:35;;;;;;;24.55;19.42;;;;;;;10.37;86.48;99434.61;1757595;80;25934;-80
2022/09/29 08:08:04;;;;;;;19.60;15.48;;;;;;;10.40;86.66;99440.06;1756588;80;26113;-81
2022/09/29 08:10:32;;;;;;;16.07;13.15;;;;;;;10.45;86.73;99436.23;1721786;81;26103;-80
2022/09/29 08:12:59;;;;;;;13.38;11.97;;;;;;;10.46;86.30;99436.52;1719397;81;28236;-82
2022/09/29 08:15:25;;;;;;;17.35;14.07;;;;;;;10.46;86.19;99438.69;1725966;81;25908;-81
2022/09/29 08:17:54;;;;;;;19.92;15.03;;;;;;;10.45;86.04;99447.78;1732529;81;25768;-80
2022/09/29 08:20:22;;;;;;;17.62;14.35;;;;;;;10.48;86.30;99439.80;1707823;82;26550;-79
2022/09/29 08:22:49;;;;;;;17.23;13.38;;;;;;;10.46;85.50;99441.38;1691784;83;26104;-81
2022/09/29 08:25:16;;;;;;;18.87;15.00;;;;;;;10.50;85.96;99445.26;1712491;82;28305;-81
2022/09/29 08:27:44;;;;;;;40.83;28.17;;;;;;;10.57;86.21;99446.56;1754958;80;25779;-81
2022/09/29 08:30:11;;;;;;;19.15;16.65;;;;;;;10.63;86.08;99446.53;1757933;80;26454;-81
2022/09/29 08:32:38;;;;;;;19.50;16.00;;;;;;;10.69;85.97;99452.90;1721433;81;25911;-81
2022/09/29 08:35:06;;;;;;;17.77;14.55;;;;;;;10.70;85.72;99453.19;1722152;81;25854;-80
2022/09/29 08:37:32;;;;;;;18.77;15.75;;;;;;;10.72;85.86;99455.95;1715060;81;28054;-81
2022/09/29 08:39:59;;;;;;;17.02;15.18;;;;;;;10.76;86.39;99455.83;1721120;81;25871;-80
2022/09/29 08:42:50;;;;;;;18.23;16.30;;;;;;;10.82;85.66;99467.02;1720516;81;25858;-80
2022/09/29 08:45:28;;;;;;;17.25;14.75;;;;;;;10.86;85.38;99471.44;1716420;81;26551;-81
2022/09/29 08:48:05;;;;;;;19.00;15.20;;;;;;;10.86;84.75;99471.44;1720728;81;26312;-81
2022/09/29 08:50:46;;;;;;;18.95;15.98;;;;;;;10.86;84.67;99472.78;1720377;82;27462;-80
2022/09/29 08:53:15;;;;;;;;;;;;;;;10.78;84.44;99473.01;1716544;82;26400;-81
2022/09/29 08:55:52;;;;;;;19.00;16.52;;;;;;;10.79;85.02;99479.52;1729505;81;25789;-81
2022/09/29 08:58:18;;;;;;;18.55;15.38;;;;;;;10.79;85.08;99482.70;1717033;81;26374;-80
2022/09/29 09:01:09;;;;;;;17.70;15.80;;;;;;;10.81;84.78;99485.98;1708018;82;25878;-81
2022/09/29 09:03:49;;;;;;;19.30;16.00;;;;;;;10.79;84.57;99488.06;1735468;81;28292;-79
2022/09/29 09:06:36;;;;;;;20.50;17.15;;;;;;;10.77;84.82;99493.64;1715963;81;35035;-80
2022/09/29 09:09:49;;;;;;;20.20;15.68;;;;;;;10.81;85.10;99494.02;1670383;84;25867;-80
2022/09/29 09:12:31;;;;;;;20.70;17.82;;;;;;;10.79;84.74;99490.23;1725749;81;26983;-81
2022/09/29 09:15:27;;;;;;;19.85;16.65;;;;;;;10.81;84.92;99494.02;1725511;81;25851;-81
2022/09/29 09:18:26;;;;;;;21.80;18.40;;;;;;;10.79;84.68;99500.11;1722054;81;28271;-79
2022/09/29 09:21:04;;;;;;;26.75;16.97;;;;;;;10.77;84.64;99504.87;1759928;80;25849;-81
2022/09/29 09:23:55;;;;;;;20.77;16.15;;;;;;;10.76;84.71;99509.91;1757677;80;25839;-80
2022/09/29 09:26:32;;;;;;;21.00;18.27;;;;;;;10.74;84.33;99511.47;1767667;80;25910;-81
2022/09/29 09:29:10;;;;;;;18.77;16.48;;;;;;;10.71;84.25;99509.75;1750565;80;26086;-81
2022/09/29 09:31:42;;;;;;;18.85;16.82;;;;;;;10.71;84.53;99507.06;1759897;80;27499;-82
2022/09/29 09:34:32;;;;;;;20.45;16.75;;;;;;;10.77;84.80;99507.55;1763989;80;25869;-83
2022/09/29 09:37:19;;;;;;;19.70;15.87;;;;;;;10.78;84.37;99505.98;1762425;80;25921;-81
2022/09/29 09:40:18;;;;;;;19.60;16.95;;;;;;;10.76;83.89;99509.39;1769466;80;26431;-82
2022/09/29 09:42:50;;;;;;;20.30;17.17;;;;;;;10.79;84.17;99510.83;1762017;80;25899;-80
2022/09/29 09:45:40;;;;;;;18.35;16.40;;;;;;;10.88;84.80;99514.91;1757522;80;27654;-80
2022/09/29 09:48:24;;;;;;;21.48;16.90;;;;;;;10.92;84.20;99515.29;1721653;81;25836;-79
2022/09/29 09:50:51;;;;;;;19.73;17.10;;;;;;;10.98;84.49;99514.42;1721356;81;26360;-81
2022/09/29 09:53:32;;;;;;;19.30;17.05;;;;;;;11.03;84.47;99516.78;1756824;80;26430;-81
2022/09/29 09:56:27;;;;;;;18.70;16.70;;;;;;;11.10;84.37;99526.91;1752460;80;25838;-81
2022/09/29 09:59:14;;;;;;;19.70;17.60;;;;;;;11.13;83.79;99533.70;1715179;80;28326;-81
2022/09/29 10:01:40;;;;;;;17.95;15.80;;;;;;;11.11;83.68;99539.80;1719413;83;25731;-82
2022/09/29 10:04:11;;;;;;;20.25;18.05;;;;;;;11.11;83.17;99537.13;1755223;80;25870;-83
2022/09/29 10:06:37;;;;;;;19.40;17.32;;;;;;;11.10;83.53;99541.66;1722720;81;34919;-83
2022/09/29 10:09:04;;;;;;;22.07;17.52;;;;;;;11.14;83.83;99541.52;1707787;82;25851;-81
2022/09/29 10:11:31;;;;;;;18.15;16.20;;;;;;;11.14;83.26;99545.55;1707623;82;28223;-81
2022/09/29 10:14:10;;;;;;;19.65;17.30;;;;;;;11.15;83.55;99553.90;1756755;81;25974;-80
2022/09/29 10:17:01;;;;;;;18.85;16.55;;;;;;;11.17;83.55;99550.48;1757498;81;25756;-81
2022/09/29 10:20:02;;;;;;;20.17;17.30;;;;;;;11.19;83.11;99552.42;1756293;80;25815;-80
2022/09/29 10:22:29;;;;;;;18.45;16.32;;;;;;;11.17;82.91;99552.34;1755737;80;26000;-82
2022/09/29 10:25:18;;;;;;;31.85;21.45;;;;;;;11.16;83.19;99558.20;1758083;80;28137;-81
2022/09/29 10:27:48;;;;;;;19.62;17.50;;;;;;;11.22;83.59;99557.88;1755832;80;26402;-81
2022/09/29 10:30:33;;;;;;;19.95;17.55;;;;;;;11.27;83.64;99565.56;1757489;80;25788;-80
2022/09/29 10:33:05;;;;;;;18.30;15.13;;;;;;;11.31;82.95;99564.64;1753492;80;26476;-80
2022/09/29 10:35:38;;;;;;;23.60;16.87;;;;;;;11.33;82.94;99566.03;1758838;80;25898;-80
2022/09/29 10:38:24;;;;;;;18.95;16.20;;;;;;;11.34;83.08;99570.89;1751893;80;27655;-80
2022/09/29 10:41:00;;;;;;;19.37;16.05;;;;;;;11.40;83.29;99571.36;1768567;80;25745;-80
2022/09/29 10:43:37;;;;;;;20.77;17.37;;;;;;;11.42;83.18;99570.62;1721592;81;26449;-79
2022/09/29 10:46:09;;;;;;;20.82;17.48;;;;;;;11.47;83.03;99568.12;1707632;82;26402;-79
2022/09/29 10:48:35;;;;;;;18.23;16.35;;;;;;;11.46;82.66;99571.31;1704887;82;25852;-80
2022/09/29 10:51:04;;;;;;;19.98;16.73;;;;;;;11.52;82.96;99578.52;1711411;82;27448;-80
2022/09/29 10:53:41;;;;;;;18.82;16.02;;;;;;;11.59;83.09;99575.75;1707114;82;25857;-79
2022/09/29 10:56:21;;;;;;;19.75;16.97;;;;;;;11.63;82.63;99575.10;1720508;81;25823;-80
2022/09/29 10:58:55;;;;;;;16.97;15.05;;;;;;;11.69;82.62;99571.28;1720903;81;26538;-81
2022/09/29 11:01:22;;;;;;;20.23;17.90;;;;;;;11.72;82.35;99572.20;1705729;82;26506;-85
2022/09/29 11:04:03;;;;;;;22.22;17.17;;;;;;;11.76;82.96;99575.55;1703720;82;26883;-84
2022/09/29 11:06:35;;;;;;;21.93;18.07;;;;;;;11.78;81.83;99579.38;1702316;83;26206;-84
2022/09/29 11:09:16;;;;;;;18.75;16.50;;;;;;;11.80;82.13;99582.66;1705023;82;26040;-86
2022/09/29 11:11:53;;;;;;;19.57;16.77;;;;;;;11.83;81.97;99583.54;1699369;82;25797;-82
2022/09/29 11:14:40;;;;;;;21.12;17.30;;;;;;;11.85;81.81;99588.99;1699855;83;26302;-80
2022/09/29 11:17:30;;;;;;;21.35;15.72;;;;;;;11.87;81.99;99589.59;1691651;83;27437;-80
2022/09/29 11:20:01;;;;;;;18.67;16.30;;;;;;;11.91;81.79;99590.00;1711820;81;25852;-79
2022/09/29 11:22:49;;;;;;;16.97;14.95;;;;;;;11.97;81.69;99589.94;1719283;81;26419;-80
2022/09/29 11:25:47;;;;;;;20.17;17.55;;;;;;;12.00;81.61;99593.51;1729351;81;25802;-80
2022/09/29 11:28:32;;;;;;;21.07;16.27;;;;;;;12.09;81.91;99588.69;1720949;81;25753;-79
2022/09/29 11:31:18;;;;;;;20.60;16.67;;;;;;;12.18;82.08;99593.56;1706952;82;27664;-82
2022/09/29 11:34:09;;;;;;;20.20;16.70;;;;;;;12.25;81.58;99596.98;1705762;83;25849;-80
2022/09/29 11:37:05;;;;;;;20.48;17.10;;;;;;;12.26;80.83;99594.61;1717590;81;25849;-78
2022/09/29 11:39:53;;;;;;;20.32;16.90;;;;;;;12.22;80.34;99601.47;1717112;81;25764;-80
2022/09/29 11:42:28;;;;;;;20.88;16.87;;;;;;;12.21;79.78;99590.96;1718509;81;25843;-80
2022/09/29 11:45:04;;;;;;;22.70;18.60;;;;;;;12.25;80.26;99592.95;1724400;81;27557;-80
2022/09/29 11:47:48;;;;;;;19.57;17.30;;;;;;;12.34;80.91;99592.14;1706638;82;26000;-85
2022/09/29 11:50:41;;;;;;;18.80;16.80;;;;;;;12.41;80.18;99592.91;1716913;81;26354;-85